Time;durP1;ratioP1;P1;durP2;ratioP2;P2;SDS_P1;SDS_P2;PMS_P1;PMS_P2;Temp;Humidity;BMP_temperature;BMP_pressure;BME280_temperature;BME280_humidity;BME280_pressure;Samples;Min_cycle;Max_cycle;Signal;HPM_P1;HPM_P2
2023/11/10 00:01:01;;;;;;;0.98;0.43;;;15.90;75.90;;;;;;10420984;28;20106;-56
2023/11/10 00:06:02;;;;;;;1.23;0.50;;;15.90;75.80;;;;;;10415931;28;20632;-57
2023/11/10 00:11:03;;;;;;;1.25;0.70;;;15.90;76.30;;;;;;10414065;28;20068;-57
2023/11/10 00:16:06;;;;;;;1.63;0.70;;;15.90;75.80;;;;;;10414895;28;20740;-57
2023/11/10 00:21:07;;;;;;;0.90;0.52;;;15.90;75.80;;;;;;10414087;28;20036;-57
2023/11/10 00:26:08;;;;;;;1.58;0.40;;;15.90;75.80;;;;;;10414529;28;20026;-57
2023/11/10 00:31:08;;;;;;;1.48;0.52;;;15.90;75.70;;;;;;10413697;28;20050;-57
2023/11/10 00:36:09;;;;;;;1.55;0.60;;;15.90;75.90;;;;;;10413772;28;20030;-57
2023/11/10 00:41:10;;;;;;;1.23;0.50;;;15.90;75.90;;;;;;10411982;28;20044;-56
2023/11/10 00:46:10;;;;;;;0.82;0.45;;;15.90;75.80;;;;;;10413239;28;20548;-57
2023/11/10 00:51:11;;;;;;;1.88;1.00;;;15.90;75.80;;;;;;10412799;28;20033;-57
2023/11/10 00:56:12;;;;;;;1.13;0.50;;;15.80;75.80;;;;;;10411842;28;20036;-57
2023/11/10 01:01:12;;;;;;;1.65;0.40;;;15.80;75.70;;;;;;10412472;28;20064;-57
2023/11/10 01:06:14;;;;;;;2.13;0.80;;;15.80;75.70;;;;;;10412759;28;20029;-57
2023/11/10 01:11:15;;;;;;;1.10;0.50;;;15.80;75.80;;;;;;10403411;28;20041;-57
2023/11/10 01:16:16;;;;;;;2.13;0.70;;;15.80;76.40;;;;;;10412022;28;20022;-58
2023/11/10 01:21:18;;;;;;;1.98;0.70;;;15.80;75.80;;;;;;10411664;28;20025;-57
2023/11/10 01:26:19;;;;;;;7.20;0.70;;;15.80;75.70;;;;;;10411370;28;20133;-57
2023/11/10 01:31:20;;;;;;;2.08;0.73;;;15.80;75.70;;;;;;10412044;28;20084;-56
2023/11/10 01:36:20;;;;;;;1.20;0.50;;;15.80;75.70;;;;;;10411461;28;20088;-57
2023/11/10 01:41:21;;;;;;;0.63;0.43;;;15.80;75.70;;;;;;10410952;28;20045;-57
2023/11/10 01:46:47;;;;;;;1.05;0.55;;;15.80;75.70;;;;;;10410035;28;20519;-56
2023/11/10 01:51:50;;;;;;;1.65;0.77;;;15.80;75.70;;;;;;10409241;28;20532;-58
2023/11/10 01:56:52;;;;;;;2.05;0.55;;;15.80;75.70;;;;;;10407401;28;20037;-57
2023/11/10 02:01:54;;;;;;;3.33;0.75;;;15.70;75.70;;;;;;10409655;28;20036;-58
2023/11/10 02:06:54;;;;;;;2.47;0.47;;;15.70;75.70;;;;;;10406364;28;20034;-56
2023/11/10 02:11:55;;;;;;;1.33;0.50;;;15.70;75.70;;;;;;10411820;28;20511;-57
2023/11/10 02:16:56;;;;;;;1.00;0.40;;;15.70;75.70;;;;;;10424487;28;20036;-57
2023/11/10 02:21:57;;;;;;;2.22;0.70;;;15.70;75.70;;;;;;10426858;28;20025;-57
2023/11/10 02:26:57;;;;;;;1.05;0.52;;;15.70;75.70;;;;;;10425910;28;20033;-57
2023/11/10 02:31:58;;;;;;;1.15;0.50;;;15.70;75.60;;;;;;10421130;28;20049;-57
2023/11/10 02:36:59;;;;;;;0.70;0.50;;;15.70;76.20;;;;;;10426063;28;20104;-57
2023/11/10 02:42:02;;;;;;;0.82;0.60;;;15.70;75.70;;;;;;10424356;28;20534;-57
2023/11/10 02:47:03;;;;;;;1.33;0.32;;;15.70;75.60;;;;;;10413752;28;20041;-57
2023/11/10 02:52:03;;;;;;;1.38;0.38;;;15.70;75.70;;;;;;10408473;28;20393;-57
2023/11/10 02:57:04;;;;;;;1.23;0.52;;;15.70;75.70;;;;;;10408904;28;20552;-57
2023/11/10 03:02:05;;;;;;;1.88;0.38;;;15.70;75.60;;;;;;10408706;28;20096;-57
2023/11/10 03:07:06;;;;;;;1.20;0.60;;;15.70;75.70;;;;;;10409068;28;20071;-57
2023/11/10 03:12:08;;;;;;;1.35;0.60;;;15.60;75.70;;;;;;10408438;28;20087;-57
2023/11/10 03:17:09;;;;;;;1.83;0.50;;;15.60;75.70;;;;;;10418887;28;20036;-57
2023/11/10 03:22:10;;;;;;;1.10;0.60;;;15.60;75.70;;;;;;10423263;28;20037;-57
2023/11/10 03:27:11;;;;;;;1.20;0.43;;;15.60;75.60;;;;;;10413058;28;20022;-57
2023/11/10 03:32:12;;;;;;;0.82;0.50;;;15.60;75.60;;;;;;10420801;28;20045;-57
2023/11/10 03:37:13;;;;;;;0.90;0.50;;;15.60;75.50;;;;;;10407842;28;20759;-57
2023/11/10 03:42:13;;;;;;;0.88;0.30;;;15.60;75.50;;;;;;10413308;28;20115;-57
2023/11/10 03:47:14;;;;;;;0.70;0.50;;;15.60;75.50;;;;;;10415492;28;20022;-57
2023/11/10 03:52:16;;;;;;;0.90;0.60;;;15.60;75.50;;;;;;10414983;28;20060;-57
2023/11/10 03:57:17;;;;;;;0.90;0.38;;;15.60;75.50;;;;;;10415315;28;20036;-57
2023/11/10 04:02:18;;;;;;;0.70;0.50;;;15.60;75.40;;;;;;10414377;28;20354;-56
2023/11/10 04:07:19;;;;;;;1.90;0.50;;;15.60;75.60;;;;;;10413597;28;20029;-57
2023/11/10 04:12:22;;;;;;;1.25;0.70;;;15.60;75.50;;;;;;10414451;28;20091;-58
2023/11/10 04:17:24;;;;;;;1.50;0.47;;;15.60;75.40;;;;;;10414509;28;20029;-58
2023/11/10 04:22:25;;;;;;;1.20;0.50;;;15.60;75.40;;;;;;10413092;28;20148;-57
2023/11/10 04:27:25;;;;;;;1.90;0.50;;;15.50;75.40;;;;;;10414131;28;20124;-58
2023/11/10 04:32:26;;;;;;;1.70;0.50;;;15.60;75.40;;;;;;10413904;28;20054;-58
2023/11/10 04:37:27;;;;;;;1.02;0.57;;;15.50;75.30;;;;;;10413453;28;20124;-57
2023/11/10 04:42:28;;;;;;;0.50;0.35;;;15.50;75.30;;;;;;10413780;28;20095;-58
2023/11/10 04:47:29;;;;;;;0.77;0.40;;;15.50;75.30;;;;;;10412993;28;20078;-58
2023/11/10 04:52:29;;;;;;;1.35;0.75;;;15.50;75.30;;;;;;10412577;28;20025;-57
2023/11/10 04:57:30;;;;;;;2.25;0.60;;;15.50;75.30;;;;;;10412615;28;20037;-57
2023/11/10 05:02:31;;;;;;;2.55;0.57;;;15.50;75.30;;;;;;10412111;28;20028;-57
2023/11/10 05:07:32;;;;;;;1.90;0.50;;;15.50;75.30;;;;;;10410932;28;20037;-58
2023/11/10 05:12:37;;;;;;;1.58;0.70;;;15.50;75.30;;;;;;10412154;28;20377;-57
2023/11/10 05:17:39;;;;;;;0.50;0.25;;;15.50;75.30;;;;;;10411930;28;20025;-58
2023/11/10 05:22:42;;;;;;;0.68;0.40;;;15.50;75.30;;;;;;10411850;28;20029;-57
2023/11/10 05:27:42;;;;;;;0.70;0.30;;;15.50;75.40;;;;;;10411752;28;20037;-58
2023/11/10 05:32:43;;;;;;;1.70;0.45;;;15.50;75.30;;;;;;10411467;28;20049;-57
2023/11/10 05:37:44;;;;;;;1.00;0.40;;;15.50;75.30;;;;;;10409879;28;20385;-57
2023/11/10 05:42:45;;;;;;;1.88;0.57;;;15.50;75.10;;;;;;10411150;28;20108;-58
2023/11/10 05:47:45;;;;;;;1.92;0.70;;;15.80;74.50;;;;;;10410584;28;20060;-58
2023/11/10 05:52:46;;;;;;;0.70;0.40;;;16.00;73.50;;;;;;10410718;28;20035;-58
2023/11/10 05:57:48;;;;;;;1.40;0.63;;;16.30;72.60;;;;;;10410410;28;20372;-58
2023/11/10 06:02:48;;;;;;;1.50;0.55;;;16.50;71.80;;;;;;10408246;28;20044;-57
2023/11/10 06:07:50;;;;;;;7.55;1.60;;;16.70;71.20;;;;;;10446595;28;20070;-56
2023/11/10 06:12:51;;;;;;;5.68;1.17;;;16.90;71.60;;;;;;10416167;28;20037;-57
2023/11/10 06:17:52;;;;;;;10.15;1.85;;;17.10;71.40;;;;;;10407059;28;20068;-57
2023/11/10 06:22:53;;;;;;;12.57;1.40;;;17.30;71.10;;;;;;10406741;28;20037;-57
2023/11/10 06:27:53;;;;;;;11.57;1.52;;;17.50;71.20;;;;;;10408290;28;20400;-57
2023/11/10 06:32:54;;;;;;;12.80;2.25;;;17.60;71.60;;;;;;10418051;28;20046;-56
2023/11/10 06:37:55;;;;;;;10.82;2.55;;;17.60;71.60;;;;;;10403255;28;20040;-56
2023/11/10 06:42:55;;;;;;;10.95;1.83;;;17.70;71.20;;;;;;10407467;28;20037;-55
2023/11/10 06:47:59;;;;;;;17.13;2.65;;;17.80;71.10;;;;;;10407912;28;20091;-55
2023/11/10 06:53:00;;;;;;;19.77;3.03;;;17.80;71.10;;;;;;10407958;28;20112;-56
2023/11/10 06:58:00;;;;;;;18.55;2.25;;;17.80;71.00;;;;;;10406476;28;20403;-56
2023/11/10 07:03:01;;;;;;;19.35;2.75;;;17.90;70.60;;;;;;10415526;28;20032;-57
2023/11/10 07:08:09;;;;;;;9.88;2.67;;;17.90;70.70;;;;;;10405966;28;20037;-55
2023/11/10 07:13:11;;;;;;;16.27;2.35;;;17.80;70.90;;;;;;10408119;28;20087;-56
2023/11/10 07:18:12;;;;;;;18.20;3.08;;;17.90;70.90;;;;;;10415580;28;20457;-57
2023/11/10 07:23:12;;;;;;;23.83;4.25;;;17.80;70.90;;;;;;10415771;28;20037;-57
2023/11/10 07:28:14;;;;;;;16.10;3.28;;;17.70;71.20;;;;;;10412405;28;20045;-57
2023/11/10 07:33:15;;;;;;;30.88;2.88;;;17.50;71.80;;;;;;10413760;28;20060;-57
2023/11/10 07:38:15;;;;;;;20.00;2.72;;;17.40;72.30;;;;;;10413880;28;20504;-56
2023/11/10 07:43:17;;;;;;;21.80;3.83;;;17.50;72.20;;;;;;10413614;28;20035;-57
2023/11/10 07:48:18;;;;;;;32.00;3.80;;;17.50;72.20;;;;;;10412965;28;20503;-57
2023/11/10 07:53:18;;;;;;;26.65;5.35;;;17.40;72.60;;;;;;10414410;28;20029;-57
2023/11/10 07:58:19;;;;;;;23.42;4.53;;;17.40;72.70;;;;;;10411077;28;20037;-57
2023/11/10 08:03:20;;;;;;;30.92;4.30;;;17.40;72.40;;;;;;10409935;28;20025;-56
2023/11/10 08:08:21;;;;;;;26.83;3.72;;;17.40;72.40;;;;;;10411707;28;20025;-57
2023/11/10 08:13:22;;;;;;;31.15;4.38;;;17.40;72.40;;;;;;10387437;28;20053;-57
2023/11/10 08:18:24;;;;;;;33.78;4.57;;;17.40;72.90;;;;;;10410600;28;20049;-58
2023/11/10 08:23:24;;;;;;;29.65;5.82;;;17.40;72.80;;;;;;10412456;28;20142;-57
2023/11/10 08:28:25;;;;;;;25.65;4.15;;;17.40;72.70;;;;;;10410430;28;20090;-57
2023/11/10 08:33:26;;;;;;;27.52;6.38;;;17.40;72.70;;;;;;10416473;28;20079;-57
2023/11/10 08:38:28;;;;;;;24.17;4.35;;;17.40;73.50;;;;;;10411764;28;20090;-59
2023/11/10 08:43:29;;;;;;;30.60;4.60;;;17.40;73.10;;;;;;10411141;28;20114;-58
2023/11/10 08:48:30;;;;;;;22.45;4.35;;;17.40;72.90;;;;;;10410317;28;20082;-56
2023/11/10 08:53:30;;;;;;;18.83;3.70;;;17.30;73.70;;;;;;10409487;28;20025;-58
2023/11/10 08:58:31;;;;;;;32.05;4.90;;;17.20;73.80;;;;;;10398730;28;20026;-58
2023/11/10 09:03:32;;;;;;;16.48;5.38;;;17.20;73.20;;;;;;10402669;28;20040;-58
2023/11/10 09:08:33;;;;;;;30.90;6.00;;;17.10;73.80;;;;;;10409345;28;20052;-57
2023/11/10 09:13:34;;;;;;;28.98;4.93;;;17.20;73.60;;;;;;10409617;28;20036;-58
2023/11/10 09:18:36;;;;;;;22.98;4.78;;;17.20;73.40;;;;;;10408663;28;20126;-58
2023/11/10 09:23:37;;;;;;;20.55;4.07;;;17.20;73.40;;;;;;10409554;28;20043;-58
2023/11/10 09:28:38;;;;;;;23.65;4.95;;;17.10;73.40;;;;;;10411351;28;20040;-59
2023/11/10 09:33:38;;;;;;;22.38;4.22;;;17.10;73.30;;;;;;10412525;28;20041;-57
2023/11/10 09:38:39;;;;;;;17.92;4.22;;;17.20;73.10;;;;;;10408556;28;20155;-58
2023/11/10 09:43:44;;;;;;;22.45;4.22;;;17.10;73.20;;;;;;10409062;28;20029;-57
2023/11/10 09:48:45;;;;;;;27.00;5.30;;;17.10;73.20;;;;;;10402869;28;20032;-57
2023/11/10 09:53:47;;;;;;;26.63;5.25;;;17.20;73.70;;;;;;10399656;28;20489;-55
2023/11/10 09:58:50;;;;;;;24.55;4.35;;;17.20;73.90;;;;;;10406524;28;20560;-57
2023/11/10 10:03:50;;;;;;;26.55;6.53;;;17.20;74.00;;;;;;10408672;28;20464;-57
2023/11/10 10:08:55;;;;;;;28.35;6.25;;;17.10;74.20;;;;;;10407519;28;20036;-57
2023/11/10 10:13:56;;;;;;;26.98;4.20;;;16.90;75.20;;;;;;10401581;28;20033;-57
2023/11/10 10:18:56;;;;;;;22.95;4.50;;;16.90;75.10;;;;;;10405462;28;20033;-56
2023/11/10 10:23:58;;;;;;;40.85;6.28;;;16.80;75.90;;;;;;10407744;28;20029;-56
2023/11/10 10:29:00;;;;;;;21.48;4.07;;;16.80;75.70;;;;;;10408528;28;20037;-58
2023/11/10 10:34:04;;;;;;;26.10;5.10;;;16.80;75.90;;;;;;10407323;28;20022;-59
2023/11/10 10:39:12;;;;;;;33.75;5.40;;;16.70;76.10;;;;;;10406521;28;20034;-56
2023/11/10 10:44:14;;;;;;;17.13;5.30;;;16.70;76.40;;;;;;10402352;28;20069;-57
2023/11/10 10:49:18;;;;;;;24.88;3.30;;;16.60;75.90;;;;;;10406216;28;20055;-59
2023/11/10 10:54:22;;;;;;;15.50;4.05;;;16.60;75.90;;;;;;10402307;28;20356;-58
2023/11/10 10:59:23;;;;;;;25.88;4.22;;;16.60;75.40;;;;;;10398691;28;20037;-56
2023/11/10 11:04:47;;;;;;;18.85;2.67;;;16.80;75.00;;;;;;10406531;28;20036;-58
2023/11/10 11:10:15;;;;;;;19.10;3.55;;;16.80;74.60;;;;;;10394700;28;20029;-57
2023/11/10 11:16:02;;;;;;;16.35;3.95;;;17.00;74.20;;;;;;10406886;28;20393;-57
2023/11/10 11:21:05;;;;;;;12.60;3.17;;;17.00;73.90;;;;;;10402055;28;20045;-57
2023/11/10 11:26:06;;;;;;;13.95;3.33;;;16.90;74.30;;;;;;10404904;28;20033;-57
2023/11/10 11:31:13;;;;;;;15.43;2.70;;;16.90;74.80;;;;;;10406229;28;20103;-57
2023/11/10 11:36:18;;;;;;;14.05;2.28;;;17.00;75.00;;;;;;10407465;28;20021;-58
2023/11/10 11:41:18;;;;;;;8.55;2.25;;;17.00;74.70;;;;;;10407003;28;20037;-56
2023/11/10 11:46:20;;;;;;;13.25;2.65;;;16.90;74.60;;;;;;10406635;28;20534;-58
2023/11/10 11:51:21;;;;;;;15.45;2.72;;;16.90;74.90;;;;;;10405760;28;20037;-59
2023/11/10 11:56:22;;;;;;;20.55;3.08;;;17.00;74.30;;;;;;10408184;28;20076;-58
2023/11/10 12:01:22;;;;;;;18.58;3.35;;;17.00;73.90;;;;;;10408642;28;20546;-57
2023/11/10 12:06:25;;;;;;;13.57;2.55;;;17.00;74.60;;;;;;10414102;28;20049;-56
2023/11/10 12:11:27;;;;;;;16.00;3.47;;;16.90;74.30;;;;;;10425584;28;20034;-56
2023/11/10 12:16:28;;;;;;;18.17;4.75;;;17.00;74.40;;;;;;10430710;28;20013;-57
2023/11/10 12:21:30;;;;;;;19.50;2.90;;;16.90;74.70;;;;;;10424165;28;20029;-58
2023/11/10 12:26:40;;;;;;;11.90;2.83;;;16.90;74.80;;;;;;10415843;28;20021;-58
2023/11/10 12:31:48;;;;;;;18.92;4.18;;;16.80;74.90;;;;;;10424335;28;20484;-58
2023/11/10 12:36:49;;;;;;;16.38;3.63;;;16.90;74.80;;;;;;10424632;28;20658;-57
2023/11/10 12:41:51;;;;;;;17.70;3.30;;;16.80;75.10;;;;;;10412587;28;20056;-56
2023/11/10 12:47:01;;;;;;;17.10;3.33;;;16.90;74.80;;;;;;10413343;28;20026;-58
2023/11/10 12:52:04;;;;;;;15.15;2.90;;;16.80;74.70;;;;;;10411746;28;20488;-59
2023/11/10 12:57:05;;;;;;;14.93;3.03;;;16.90;74.30;;;;;;10412399;28;20025;-58
2023/11/10 13:02:07;;;;;;;20.15;3.63;;;16.90;74.10;;;;;;10412432;28;20241;-57
2023/11/10 13:07:08;;;;;;;11.88;2.42;;;16.90;73.80;;;;;;10418143;28;20211;-57
2023/11/10 13:12:11;;;;;;;15.80;3.25;;;17.00;73.30;;;;;;10412415;28;20092;-57
2023/11/10 13:17:12;;;;;;;11.65;2.20;;;17.10;73.10;;;;;;10409943;28;20080;-58
2023/11/10 13:22:16;;;;;;;16.92;2.20;;;17.10;73.20;;;;;;10411087;28;20097;-57
2023/11/10 13:27:18;;;;;;;14.02;2.97;;;17.10;73.30;;;;;;10410025;28;20037;-58
2023/11/10 13:32:19;;;;;;;13.68;2.95;;;17.00;75.20;;;;;;10411885;28;20049;-57
2023/11/10 13:37:20;;;;;;;14.50;2.05;;;17.00;74.10;;;;;;10410539;28;20021;-58
2023/11/10 13:42:21;;;;;;;15.73;2.20;;;17.00;74.00;;;;;;10410024;28;20033;-58
2023/11/10 13:47:21;;;;;;;16.08;3.05;;;17.00;74.10;;;;;;10419448;28;20036;-58
2023/11/10 13:52:22;;;;;;;14.55;2.88;;;16.90;74.40;;;;;;10423006;28;20051;-58
2023/11/10 13:57:23;;;;;;;19.13;3.80;;;16.80;74.20;;;;;;10417246;28;20029;-58
2023/11/10 14:02:24;;;;;;;14.55;2.97;;;16.80;74.70;;;;;;10420114;28;20028;-59
2023/11/10 14:07:24;;;;;;;16.48;2.58;;;16.80;75.30;;;;;;10408665;28;20041;-58
2023/11/10 14:12:25;;;;;;;16.55;3.25;;;16.80;74.20;;;;;;10409183;28;20068;-58
2023/11/10 14:17:27;;;;;;;19.73;2.35;;;16.90;74.00;;;;;;10409338;28;20033;-58
2023/11/10 14:22:29;;;;;;;14.10;2.30;;;17.00;73.70;;;;;;10407918;28;20536;-58
2023/11/10 14:27:29;;;;;;;22.70;4.30;;;17.10;73.30;;;;;;10409506;28;20392;-59
2023/11/10 14:32:31;;;;;;;13.40;3.08;;;17.00;73.20;;;;;;10409020;28;20045;-58
2023/11/10 14:37:31;;;;;;;11.85;2.28;;;17.10;72.70;;;;;;10408734;28;20567;-58
2023/11/10 14:42:32;;;;;;;9.85;1.77;;;17.10;72.80;;;;;;10440756;28;20017;-58
2023/11/10 14:47:33;;;;;;;21.88;2.95;;;17.00;73.10;;;;;;10421216;28;20033;-57
2023/11/10 14:52:38;;;;;;;17.38;5.65;;;17.10;73.10;;;;;;10407803;28;20033;-57
2023/11/10 14:57:38;;;;;;;14.27;2.67;;;17.10;73.10;;;;;;10410975;28;20111;-59
2023/11/10 15:02:40;;;;;;;28.67;4.03;;;17.10;73.90;;;;;;10406429;28;20614;-57
2023/11/10 15:07:41;;;;;;;41.03;5.57;;;17.10;73.80;;;;;;10407867;28;20100;-56
2023/11/10 15:12:44;;;;;;;41.20;3.95;;;17.00;74.60;;;;;;10407648;28;20025;-58
2023/11/10 15:17:44;;;;;;;27.92;4.45;;;16.90;75.00;;;;;;10407671;28;20033;-58
2023/11/10 15:22:45;;;;;;;27.75;4.78;;;16.90;75.00;;;;;;10415910;28;20014;-58
2023/11/10 15:27:46;;;;;;;29.38;4.10;;;16.90;75.20;;;;;;10420443;28;20049;-58
2023/11/10 15:32:47;;;;;;;29.10;4.03;;;16.80;75.30;;;;;;10407376;28;20041;-59
2023/11/10 15:37:48;;;;;;;16.65;3.92;;;16.80;75.80;;;;;;10421578;28;20029;-58
2023/11/10 15:42:49;;;;;;;31.08;6.13;;;16.80;75.20;;;;;;10413272;28;20029;-59
2023/11/10 15:47:50;;;;;;;25.77;4.32;;;16.90;75.00;;;;;;10413822;28;20374;-58
2023/11/10 15:52:51;;;;;;;27.65;4.50;;;16.90;74.80;;;;;;10414735;28;20037;-59
2023/11/10 15:57:52;;;;;;;31.17;5.80;;;16.90;75.00;;;;;;10415137;28;20033;-58
2023/11/10 16:02:53;;;;;;;20.25;3.20;;;16.70;75.90;;;;;;10414606;28;20080;-57
2023/11/10 16:07:53;;;;;;;33.80;12.32;;;16.70;75.60;;;;;;10420105;28;20067;-57
2023/11/10 16:12:54;;;;;;;57.63;23.38;;;16.80;76.40;;;;;;10434875;28;20082;-58
2023/11/10 16:17:54;;;;;;;32.63;10.02;;;16.90;75.40;;;;;;10425735;28;20034;-58
2023/11/10 16:22:55;;;;;;;26.73;8.02;;;17.00;74.60;;;;;;10417613;28;20044;-59
2023/11/10 16:27:56;;;;;;;28.25;7.20;;;17.10;73.90;;;;;;10428979;28;20029;-58
2023/11/10 16:32:59;;;;;;;33.95;21.52;;;17.20;75.00;;;;;;10429643;28;20045;-56
2023/11/10 16:37:59;;;;;;;23.20;11.68;;;17.40;74.60;;;;;;10414052;28;20037;-58
2023/11/10 16:43:00;;;;;;;36.45;15.60;;;17.50;74.30;;;;;;10413290;28;20075;-57
2023/11/10 16:48:01;;;;;;;32.45;9.43;;;17.40;74.30;;;;;;10414702;28;20037;-58
2023/11/10 16:53:01;;;;;;;21.98;9.63;;;17.30;74.50;;;;;;10411670;28;20462;-57
2023/11/10 16:58:02;;;;;;;24.73;9.05;;;17.20;74.50;;;;;;10412046;28;20053;-57
2023/11/10 17:03:05;;;;;;;18.23;8.85;;;17.20;74.50;;;;;;10412648;28;20041;-57
2023/11/10 17:08:06;;;;;;;27.75;8.32;;;17.20;74.80;;;;;;10419707;28;20040;-56
2023/11/10 17:13:07;;;;;;;23.13;9.15;;;17.20;74.60;;;;;;10417126;28;20053;-57
2023/11/10 17:18:10;;;;;;;26.40;9.15;;;17.10;75.20;;;;;;10412003;28;20346;-57
2023/11/10 17:23:12;;;;;;;120.65;69.05;;;17.10;75.30;;;;;;10420197;28;20064;-58
2023/11/10 17:28:13;;;;;;;72.85;35.33;;;17.00;75.10;;;;;;10412054;28;20025;-58
2023/11/10 17:33:14;;;;;;;52.42;29.42;;;16.90;75.40;;;;;;10411786;28;20053;-57
2023/11/10 17:38:14;;;;;;;54.30;27.50;;;16.80;75.40;;;;;;10411729;28;20124;-58
2023/11/10 17:43:16;;;;;;;52.47;27.77;;;16.70;75.50;;;;;;10411252;28;20493;-58
2023/11/10 17:48:17;;;;;;;55.53;28.40;;;16.70;75.40;;;;;;10411517;28;20029;-58
2023/11/10 17:53:19;;;;;;;52.85;26.60;;;16.70;75.30;;;;;;10410629;28;20037;-57
2023/11/10 17:58:21;;;;;;;43.78;25.48;;;16.70;75.20;;;;;;10409463;28;20064;-58
2023/11/10 18:03:22;;;;;;;45.53;25.27;;;16.80;74.80;;;;;;10410506;28;20041;-57
2023/11/10 18:08:23;;;;;;;45.08;22.23;;;16.90;74.30;;;;;;10409485;28;20453;-58
2023/11/10 18:13:24;;;;;;;47.15;23.65;;;16.90;74.00;;;;;;10410385;28;20033;-58
2023/11/10 18:18:25;;;;;;;39.92;22.52;;;17.00;73.70;;;;;;10409778;28;20036;-58
2023/11/10 18:23:31;;;;;;;41.55;22.35;;;17.00;73.50;;;;;;10409829;28;20041;-58
2023/11/10 18:28:31;;;;;;;31.38;22.35;;;17.00;73.40;;;;;;10409744;28;20040;-58
2023/11/10 18:33:32;;;;;;;40.63;21.25;;;17.00;73.40;;;;;;10409451;28;20064;-58
2023/11/10 18:38:33;;;;;;;30.63;20.48;;;17.10;73.10;;;;;;10409032;28;20583;-58
2023/11/10 18:43:34;;;;;;;31.17;18.23;;;17.10;73.10;;;;;;10409908;28;20116;-58
2023/11/10 18:48:36;;;;;;;33.42;19.48;;;17.10;73.10;;;;;;10409012;28;20033;-58
2023/11/10 18:53:39;;;;;;;30.60;19.98;;;17.00;73.00;;;;;;10408977;28;20044;-58
2023/11/10 18:58:40;;;;;;;32.80;18.20;;;17.10;72.80;;;;;;10408348;28;20037;-58
2023/11/10 19:03:41;;;;;;;26.75;18.20;;;17.10;72.80;;;;;;10408396;28;20021;-58
2023/11/10 19:08:42;;;;;;;31.17;16.73;;;17.10;72.70;;;;;;10406049;28;20036;-58
2023/11/10 19:13:42;;;;;;;31.05;19.42;;;17.20;72.60;;;;;;10416113;28;20075;-58
2023/11/10 19:18:43;;;;;;;30.25;15.35;;;17.10;72.60;;;;;;10415721;28;20021;-58
2023/11/10 19:23:44;;;;;;;28.95;15.52;;;17.20;72.50;;;;;;10415741;28;20033;-58
2023/11/10 19:28:44;;;;;;;28.15;15.35;;;17.20;72.30;;;;;;10415168;28;20035;-58
2023/11/10 19:33:45;;;;;;;36.28;16.27;;;17.10;72.40;;;;;;10415528;28;20111;-57
2023/11/10 19:38:46;;;;;;;23.40;14.32;;;17.10;72.60;;;;;;10414742;28;20068;-58
2023/11/10 19:43:50;;;;;;;25.67;15.65;;;17.10;72.40;;;;;;10415229;28;20013;-58
2023/11/10 19:48:51;;;;;;;26.00;14.10;;;17.20;72.50;;;;;;10414711;28;20026;-57
2023/11/10 19:53:52;;;;;;;21.48;13.38;;;17.10;72.60;;;;;;10413983;28;20037;-58
2023/11/10 19:58:53;;;;;;;21.90;12.48;;;17.10;72.40;;;;;;10414211;28;20025;-58
2023/11/10 20:03:54;;;;;;;18.92;11.65;;;17.20;72.40;;;;;;10414032;28;20028;-58
2023/11/10 20:08:55;;;;;;;22.05;11.88;;;17.20;72.40;;;;;;10413243;28;20029;-58
2023/11/10 20:13:56;;;;;;;18.98;11.77;;;17.10;72.40;;;;;;10414991;28;20051;-57
2023/11/10 20:18:56;;;;;;;21.80;12.40;;;17.10;72.60;;;;;;10414447;28;20036;-58
2023/11/10 20:23:57;;;;;;;18.92;12.43;;;17.00;72.70;;;;;;10413282;28;20029;-58
2023/11/10 20:28:58;;;;;;;17.05;11.27;;;16.90;72.90;;;;;;10414001;28;20033;-58
2023/11/10 20:33:58;;;;;;;16.88;11.27;;;16.90;73.10;;;;;;10414263;28;20104;-58
2023/11/10 20:38:59;;;;;;;25.20;11.50;;;16.80;73.30;;;;;;10429200;28;20033;-58
2023/11/10 20:44:00;;;;;;;13.93;9.10;;;16.80;73.40;;;;;;10413870;28;20469;-58
2023/11/10 20:49:00;;;;;;;16.45;9.10;;;16.70;73.50;;;;;;10413418;28;20600;-58
2023/11/10 20:54:01;;;;;;;19.42;10.38;;;16.70;73.60;;;;;;10413668;28;20374;-59
2023/11/10 20:59:03;;;;;;;15.48;8.25;;;16.60;73.60;;;;;;10412773;28;20040;-59
2023/11/10 21:04:04;;;;;;;14.35;8.48;;;16.60;74.30;;;;;;10413312;28;20791;-58
2023/11/10 21:09:07;;;;;;;13.23;9.20;;;16.60;73.70;;;;;;10412221;28;20036;-59
2023/11/10 21:14:08;;;;;;;12.88;9.20;;;16.60;73.80;;;;;;10412800;28;20037;-58
2023/11/10 21:19:11;;;;;;;12.80;8.23;;;16.50;73.80;;;;;;10412084;28;20029;-58
2023/11/10 21:24:12;;;;;;;13.20;8.43;;;16.50;73.90;;;;;;10412353;28;20436;-58
2023/11/10 21:29:13;;;;;;;16.08;9.35;;;16.40;74.50;;;;;;10418258;28;20037;-58
2023/11/10 21:34:14;;;;;;;19.95;9.40;;;16.40;74.00;;;;;;10417545;28;20408;-57
2023/11/10 21:39:20;;;;;;;12.23;8.15;;;16.40;74.00;;;;;;10411075;28;20033;-58
2023/11/10 21:44:21;;;;;;;15.30;8.73;;;16.30;74.00;;;;;;10411422;28;20489;-58
2023/11/10 21:49:24;;;;;;;13.75;8.13;;;16.30;74.10;;;;;;10409570;28;20040;-58
2023/11/10 21:54:25;;;;;;;10.30;7.00;;;16.30;74.10;;;;;;10411299;28;20048;-59
2023/11/10 21:59:26;;;;;;;8.88;6.35;;;16.20;74.10;;;;;;10410471;28;20099;-58
2023/11/10 22:04:27;;;;;;;10.73;6.53;;;16.20;74.20;;;;;;10410791;28;20093;-58
2023/11/10 22:09:27;;;;;;;11.77;6.32;;;16.20;74.20;;;;;;10408644;28;20365;-58
2023/11/10 22:14:28;;;;;;;9.05;5.70;;;16.10;74.30;;;;;;10410276;28;20052;-58
2023/11/10 22:19:29;;;;;;;10.18;6.90;;;16.10;74.30;;;;;;10409826;28;20044;-58
2023/11/10 22:24:30;;;;;;;10.45;6.05;;;16.10;74.30;;;;;;10410109;28;20037;-58
2023/11/10 22:29:31;;;;;;;9.07;6.85;;;16.10;74.30;;;;;;10409796;28;20385;-58
2023/11/10 22:34:31;;;;;;;9.88;5.80;;;16.10;74.50;;;;;;10409805;28;20105;-58
2023/11/10 22:39:32;;;;;;;8.43;5.70;;;16.00;74.40;;;;;;10409196;28;20029;-58
2023/11/10 22:44:33;;;;;;;10.45;5.75;;;16.00;74.40;;;;;;10408755;28;20040;-58
2023/11/10 22:49:34;;;;;;;10.02;6.60;;;16.00;74.90;;;;;;10409012;28;20056;-58
2023/11/10 22:54:35;;;;;;;8.68;6.20;;;16.00;74.30;;;;;;10409369;28;20109;-58
2023/11/10 22:59:40;;;;;;;8.75;6.15;;;15.90;74.30;;;;;;10408431;28;20076;-59
2023/11/10 23:04:41;;;;;;;8.82;5.30;;;15.90;74.30;;;;;;10409019;28;20087;-58
2023/11/10 23:09:44;;;;;;;9.10;5.93;;;15.90;74.30;;;;;;10408214;28;20414;-58
2023/11/10 23:14:45;;;;;;;8.95;5.90;;;15.90;74.40;;;;;;10408686;28;20048;-58
2023/11/10 23:19:50;;;;;;;9.48;5.45;;;15.90;74.30;;;;;;10408487;28;20056;-57
2023/11/10 23:24:50;;;;;;;8.43;5.55;;;15.90;74.30;;;;;;10408466;28;20025;-58
2023/11/10 23:29:51;;;;;;;8.38;5.15;;;15.90;74.10;;;;;;10408368;28;20493;-58
2023/11/10 23:34:54;;;;;;;8.10;4.95;;;15.90;74.20;;;;;;10408418;28;20571;-58
2023/11/10 23:39:58;;;;;;;8.18;5.15;;;15.80;74.20;;;;;;10407600;28;20029;-58
2023/11/10 23:44:58;;;;;;;7.72;4.68;;;15.90;74.20;;;;;;10407846;28;20037;-59
2023/11/10 23:49:59;;;;;;;7.80;5.45;;;15.80;74.00;;;;;;10407824;28;20029;-58
2023/11/10 23:55:02;;;;;;;8.52;4.65;;;15.80;74.20;;;;;;10408552;28;20050;-58
